Time;durP1;ratioP1;P1;durP2;ratioP2;P2;SDS_P1;SDS_P2;PMS_P1;PMS_P2;Temp;Humidity;BMP_temperature;BMP_pressure;BME280_temperature;BME280_humidity;BME280_pressure;Samples;Min_cycle;Max_cycle;Signal;HPM_P1;HPM_P2
2023/02/26 00:02:17;;;;;;;53.88;25.05;;;0.00;99.90;;;;;;5036987;28;20025;-80
2023/02/26 00:04:43;;;;;;;60.00;26.50;;;0.00;99.90;;;;;;5036992;28;20034;-80
2023/02/26 00:07:08;;;;;;;135.57;53.45;;;-0.10;99.90;;;;;;5075749;28;20051;-80
2023/02/26 00:09:34;;;;;;;70.85;28.60;;;0.00;99.90;;;;;;5076483;28;20390;-80
2023/02/26 00:12:00;;;;;;;77.18;34.22;;;-0.10;99.90;;;;;;5076419;28;20029;-80
2023/02/26 00:14:27;;;;;;;70.28;33.00;;;-0.10;99.90;;;;;;5075365;28;20025;-80
2023/02/26 00:17:34;;;;;;;63.28;31.33;;;-0.10;99.90;;;;;;5076730;28;20099;-80
2023/02/26 00:20:01;;;;;;;77.22;32.85;;;-0.10;99.90;;;;;;5074495;28;20398;-80
2023/02/26 00:22:26;;;;;;;61.00;28.80;;;-0.10;99.90;;;;;;5075272;28;20056;-80
2023/02/26 00:24:52;;;;;;;49.92;22.50;;;-0.10;99.90;;;;;;5076127;28;20051;-80
2023/02/26 00:27:18;;;;;;;15.00;9.80;;;-0.10;99.90;;;;;;5076223;28;20439;-80
2023/02/26 00:29:44;;;;;;;40.17;19.55;;;-0.10;99.90;;;;;;5074775;28;20467;-80
2023/02/26 00:32:10;;;;;;;83.65;36.67;;;-0.10;99.90;;;;;;5075981;28;20478;-80
2023/02/26 00:34:36;;;;;;;26.42;13.63;;;-0.10;99.90;;;;;;5075953;28;20024;-80
2023/02/26 00:37:22;;;;;;;97.07;41.38;;;-0.10;99.90;;;;;;5075820;28;20044;-80
2023/02/26 00:39:48;;;;;;;80.22;36.10;;;-0.10;99.90;;;;;;5074914;28;20028;-80
2023/02/26 00:42:14;;;;;;;62.70;28.98;;;-0.10;99.90;;;;;;5074837;28;20391;-80
2023/02/26 00:44:40;;;;;;;68.00;30.88;;;-0.10;99.90;;;;;;5075882;28;20021;-80
2023/02/26 00:47:16;;;;;;;23.17;12.20;;;-0.10;99.90;;;;;;5075527;28;20060;-80
2023/02/26 00:50:06;;;;;;;22.25;12.00;;;-0.10;99.90;;;;;;5074788;28;20099;-80
2023/02/26 00:52:34;;;;;;;64.38;29.83;;;-0.10;99.90;;;;;;5075770;28;20027;-80
2023/02/26 00:55:00;;;;;;;56.05;25.45;;;-0.10;99.90;;;;;;5075529;28;20040;-80
2023/02/26 00:57:26;;;;;;;71.43;28.95;;;-0.10;99.90;;;;;;5075669;28;20021;-80
2023/02/26 00:59:51;;;;;;;98.50;39.00;;;-0.10;99.90;;;;;;5075875;28;20095;-80
2023/02/26 01:02:17;;;;;;;162.68;61.97;;;-0.10;99.90;;;;;;5075125;28;20055;-80
2023/02/26 01:04:43;;;;;;;158.70;58.50;;;-0.10;99.90;;;;;;5075477;28;20047;-80
2023/02/26 01:07:09;;;;;;;31.08;14.88;;;-0.10;99.90;;;;;;5074057;28;20024;-80
2023/02/26 01:09:36;;;;;;;16.52;8.85;;;-0.10;99.90;;;;;;5075955;28;20139;-80
2023/02/26 01:12:08;;;;;;;119.90;47.03;;;-0.10;99.90;;;;;;5074862;28;20553;-80
2023/02/26 01:14:35;;;;;;;45.55;21.05;;;-0.10;99.90;;;;;;5075724;28;20021;-80
2023/02/26 01:17:17;;;;;;;83.38;30.05;;;-0.10;99.90;;;;;;5076305;28;20029;-80
2023/02/26 01:19:51;;;;;;;84.32;31.52;;;-0.10;99.90;;;;;;5074586;28;20391;-80
2023/02/26 01:22:26;;;;;;;109.88;40.85;;;-0.10;99.90;;;;;;5075621;28;20020;-80
2023/02/26 01:25:00;;;;;;;38.70;17.48;;;-0.10;99.90;;;;;;5074312;28;20020;-80
2023/02/26 01:27:26;;;;;;;49.05;21.25;;;-0.10;99.90;;;;;;5074431;28;20035;-80
2023/02/26 01:29:52;;;;;;;104.75;41.25;;;-0.10;99.90;;;;;;5074452;28;20497;-80
2023/02/26 01:32:35;;;;;;;51.00;20.73;;;-0.10;99.90;;;;;;5075454;28;20078;-80
2023/02/26 01:35:08;;;;;;;69.13;25.55;;;-0.20;99.90;;;;;;5075319;28;20025;-80
2023/02/26 01:37:56;;;;;;;39.40;17.02;;;-0.20;99.90;;;;;;5074355;28;20119;-80
2023/02/26 01:40:24;;;;;;;12.05;6.25;;;-0.10;99.90;;;;;;5073928;28;20020;-80
2023/02/26 01:42:53;;;;;;;7.97;6.40;;;-0.30;99.90;;;;;;5074180;28;20386;-80
2023/02/26 01:45:34;;;;;;;11.38;8.20;;;-0.30;99.90;;;;;;5074838;28;20057;-80
2023/02/26 01:48:09;;;;;;;15.25;7.55;;;-0.40;99.90;;;;;;5074284;28;20048;-80
2023/02/26 01:50:37;;;;;;;9.48;7.43;;;-0.40;99.90;;;;;;5075173;28;20020;-80
2023/02/26 01:53:18;;;;;;;13.00;7.22;;;-0.40;99.90;;;;;;5074976;28;20024;-80
2023/02/26 01:55:56;;;;;;;11.13;7.68;;;-0.50;99.90;;;;;;5074891;28;20068;-80
2023/02/26 01:58:23;;;;;;;8.45;7.40;;;-0.50;99.90;;;;;;5074056;28;20056;-80
2023/02/26 02:00:50;;;;;;;9.18;7.13;;;-0.40;99.90;;;;;;5074807;28;20028;-80
2023/02/26 02:03:17;;;;;;;8.85;6.35;;;-0.50;99.90;;;;;;5073832;28;20366;-80
2023/02/26 02:05:50;;;;;;;11.25;6.43;;;-0.60;99.90;;;;;;5074717;28;20386;-80
2023/02/26 02:08:16;;;;;;;8.05;5.93;;;-0.60;99.90;;;;;;5074960;28;20078;-80
2023/02/26 02:10:45;;;;;;;10.25;6.75;;;-0.60;99.90;;;;;;5074867;28;20032;-80
2023/02/26 02:13:32;;;;;;;9.90;6.22;;;-0.60;99.90;;;;;;5075037;28;20082;-80
2023/02/26 02:16:00;;;;;;;9.20;5.88;;;-0.60;99.90;;;;;;5074845;28;20041;-80
2023/02/26 02:18:25;;;;;;;10.15;7.15;;;-0.70;99.90;;;;;;5074466;28;20020;-80
2023/02/26 02:20:59;;;;;;;11.02;7.07;;;-0.60;99.90;;;;;;5074476;28;20026;-80
2023/02/26 02:23:46;;;;;;;8.35;6.30;;;-0.60;99.90;;;;;;5073714;28;20070;-80
2023/02/26 02:26:49;;;;;;;11.80;7.95;;;-0.70;99.90;;;;;;5074045;28;20123;-80
2023/02/26 02:29:20;;;;;;;11.27;6.70;;;-0.60;99.90;;;;;;5073447;28;20027;-80
2023/02/26 02:32:19;;;;;;;14.43;7.30;;;-0.60;99.90;;;;;;5074306;28;20024;-80
2023/02/26 02:35:08;;;;;;;19.42;6.35;;;-0.70;99.90;;;;;;5050744;28;20441;-80
2023/02/26 02:37:47;;;;;;;9.63;6.40;;;-0.70;99.90;;;;;;5074201;28;20494;-80
2023/02/26 02:40:28;;;;;;;11.18;7.55;;;-0.70;99.90;;;;;;5073157;28;20033;-80
2023/02/26 02:43:08;;;;;;;18.42;9.30;;;-0.80;99.90;;;;;;5073368;28;20019;-79
2023/02/26 02:45:43;;;;;;;9.85;6.65;;;-0.70;99.90;;;;;;5073821;28;20044;-79
2023/02/26 02:48:34;;;;;;;11.02;6.43;;;-0.80;99.90;;;;;;5073115;28;20017;-79
2023/02/26 02:51:09;;;;;;;11.32;5.28;;;-0.80;99.90;;;;;;5064251;28;20084;-80
2023/02/26 02:53:49;;;;;;;10.75;6.70;;;-0.80;99.90;;;;;;5072742;28;20111;-80
2023/02/26 02:56:41;;;;;;;8.82;6.18;;;-0.80;99.90;;;;;;5073793;28;20040;-80
2023/02/26 02:59:24;;;;;;;15.73;8.13;;;-0.90;99.90;;;;;;5073885;28;20028;-79
2023/02/26 03:01:58;;;;;;;9.23;6.47;;;-0.80;99.90;;;;;;5073909;28;20477;-80
2023/02/26 03:04:23;;;;;;;9.65;6.25;;;-0.80;99.90;;;;;;5073887;28;20112;-80
2023/02/26 03:06:49;;;;;;;6.07;5.20;;;-0.80;99.90;;;;;;5073940;28;20064;-80
2023/02/26 03:09:15;;;;;;;6.97;4.82;;;-0.80;99.90;;;;;;5073503;28;20025;-79
2023/02/26 03:11:41;;;;;;;8.13;5.00;;;-0.90;99.90;;;;;;5072169;28;20487;-80
2023/02/26 03:14:09;;;;;;;7.38;5.28;;;-0.80;99.90;;;;;;5073833;28;20081;-80
2023/02/26 03:16:53;;;;;;;8.40;5.47;;;-0.80;99.90;;;;;;5073667;28;20074;-80
2023/02/26 03:19:22;;;;;;;6.57;4.22;;;-0.90;99.90;;;;;;5072509;28;20035;-80
2023/02/26 03:22:12;;;;;;;6.40;3.70;;;-0.90;99.90;;;;;;5073544;28;20019;-79
2023/02/26 03:24:53;;;;;;;6.63;5.25;;;-0.90;99.90;;;;;;5073859;28;20025;-80
2023/02/26 03:27:37;;;;;;;5.93;4.35;;;-0.90;99.90;;;;;;5073250;28;20109;-79
2023/02/26 03:30:19;;;;;;;8.40;4.82;;;-1.00;99.90;;;;;;5072574;28;20103;-80
2023/02/26 03:33:04;;;;;;;6.10;4.35;;;-0.90;99.90;;;;;;5072068;28;20444;-79
2023/02/26 03:36:03;;;;;;;7.25;3.63;;;-1.00;99.90;;;;;;5072013;28;20474;-80
2023/02/26 03:38:38;;;;;;;5.32;4.30;;;-1.00;99.90;;;;;;5073246;28;20080;-80
2023/02/26 03:41:11;;;;;;;8.00;4.70;;;-0.90;99.90;;;;;;5073227;28;20099;-80
2023/02/26 03:43:55;;;;;;;7.05;4.95;;;-1.00;99.90;;;;;;5073462;28;20482;-80
2023/02/26 03:46:31;;;;;;;17.33;9.98;;;-0.90;99.90;;;;;;5072245;28;20048;-79
2023/02/26 03:49:04;;;;;;;5.03;4.53;;;-0.90;99.90;;;;;;5073457;28;20028;-79
2023/02/26 03:51:30;;;;;;;8.45;4.93;;;-0.90;99.90;;;;;;5072394;28;20561;-80
2023/02/26 03:54:14;;;;;;;5.15;4.45;;;-0.90;99.90;;;;;;5073424;28;20103;-80
2023/02/26 03:56:43;;;;;;;6.90;4.38;;;-1.00;99.90;;;;;;5072134;28;20115;-80
2023/02/26 03:59:09;;;;;;;10.15;4.75;;;-1.00;99.90;;;;;;5073395;28;20078;-79
2023/02/26 04:01:45;;;;;;;8.35;5.60;;;-1.10;99.90;;;;;;5073107;28;20027;-80
2023/02/26 04:04:18;;;;;;;6.28;4.60;;;-1.10;99.90;;;;;;5073303;28;20494;-80
2023/02/26 04:06:44;;;;;;;11.82;5.95;;;-1.10;99.90;;;;;;5073379;28;20510;-80
2023/02/26 04:09:10;;;;;;;7.30;4.50;;;-1.10;99.90;;;;;;5072943;28;20168;-80
2023/02/26 04:11:37;;;;;;;7.43;5.50;;;-1.20;99.90;;;;;;5073216;28;20040;-80
2023/02/26 04:14:03;;;;;;;9.32;5.03;;;-1.20;99.90;;;;;;5071951;28;20559;-80
2023/02/26 04:16:28;;;;;;;8.00;4.88;;;-1.10;99.90;;;;;;5071590;28;20037;-80
2023/02/26 04:18:54;;;;;;;7.60;5.85;;;-1.20;99.90;;;;;;5071870;28;20021;-80
2023/02/26 04:21:22;;;;;;;16.50;8.88;;;-1.20;99.90;;;;;;5072912;28;20029;-80
2023/02/26 04:23:47;;;;;;;10.27;5.53;;;-1.20;99.90;;;;;;5071718;28;20485;-80
2023/02/26 04:26:13;;;;;;;15.05;9.73;;;-1.30;99.90;;;;;;5071760;28;20013;-79
2023/02/26 04:28:39;;;;;;;13.43;7.18;;;-1.20;99.90;;;;;;5072840;28;20490;-79
2023/02/26 04:31:06;;;;;;;14.38;9.55;;;-1.20;99.90;;;;;;5072781;28;20161;-79
2023/02/26 04:33:32;;;;;;;11.07;6.28;;;-1.20;99.90;;;;;;5072804;28;20423;-79
2023/02/26 04:35:59;;;;;;;7.32;6.05;;;-1.20;99.90;;;;;;5072934;28;20040;-79
2023/02/26 04:38:24;;;;;;;9.23;6.40;;;-1.30;99.90;;;;;;5072979;28;20020;-79
2023/02/26 04:40:50;;;;;;;9.45;5.78;;;-1.30;99.90;;;;;;5071746;28;20051;-80
2023/02/26 04:43:16;;;;;;;16.05;8.15;;;-1.30;99.90;;;;;;5076311;28;20493;-80
2023/02/26 04:45:45;;;;;;;8.35;6.03;;;-1.40;99.90;;;;;;5074965;28;20056;-80
2023/02/26 04:48:11;;;;;;;7.32;6.45;;;-1.40;99.90;;;;;;5076489;28;20382;-79
2023/02/26 04:50:37;;;;;;;12.98;6.63;;;-1.40;99.90;;;;;;5075380;28;20362;-79
2023/02/26 04:53:03;;;;;;;11.45;7.22;;;-1.40;99.90;;;;;;5075042;28;20027;-80
2023/02/26 04:55:28;;;;;;;8.98;5.45;;;-1.40;99.90;;;;;;5076180;28;20440;-80
2023/02/26 04:57:54;;;;;;;6.47;5.72;;;-1.40;99.90;;;;;;5075259;28;20473;-80
2023/02/26 05:00:20;;;;;;;9.25;5.68;;;-1.40;99.90;;;;;;5075960;28;20059;-80
2023/02/26 05:02:45;;;;;;;12.32;7.50;;;-1.30;99.90;;;;;;5076124;28;20081;-80
2023/02/26 05:05:11;;;;;;;12.30;7.20;;;-1.30;99.90;;;;;;5074763;28;20051;-80
2023/02/26 05:07:37;;;;;;;13.52;7.90;;;-1.40;99.90;;;;;;5076282;28;20031;-80
2023/02/26 05:10:05;;;;;;;8.93;5.88;;;-1.40;99.90;;;;;;5076132;28;20028;-79
2023/02/26 05:12:31;;;;;;;10.63;6.53;;;-1.40;99.90;;;;;;5074688;28;20025;-80
2023/02/26 05:14:57;;;;;;;8.60;5.57;;;-1.40;99.90;;;;;;5074705;28;20016;-80
2023/02/26 05:17:22;;;;;;;8.45;5.13;;;-1.40;99.90;;;;;;5074095;28;20528;-79
2023/02/26 05:19:48;;;;;;;11.20;5.60;;;-1.40;99.90;;;;;;5075843;28;20070;-80
2023/02/26 05:22:13;;;;;;;14.52;7.25;;;-1.40;99.90;;;;;;5074672;28;20534;-80
2023/02/26 05:24:40;;;;;;;10.75;6.78;;;-1.30;99.90;;;;;;5075632;28;20052;-80
2023/02/26 05:27:05;;;;;;;11.43;8.65;;;-1.30;99.90;;;;;;5075627;28;20024;-80
2023/02/26 05:29:31;;;;;;;14.73;8.32;;;-1.30;99.90;;;;;;5074637;28;20029;-80
2023/02/26 05:31:57;;;;;;;10.07;6.63;;;-1.30;99.90;;;;;;5075525;28;20023;-80
2023/02/26 05:34:23;;;;;;;16.58;9.57;;;-1.40;99.90;;;;;;5075630;28;20078;-79
2023/02/26 05:36:48;;;;;;;8.52;6.07;;;-1.40;99.90;;;;;;5074344;28;20035;-80
2023/02/26 05:39:15;;;;;;;11.27;6.47;;;-1.30;99.90;;;;;;5075487;28;20025;-80
2023/02/26 05:41:40;;;;;;;13.70;8.10;;;-1.40;99.90;;;;;;5074110;28;20021;-80
2023/02/26 05:44:07;;;;;;;12.70;7.85;;;-1.40;99.90;;;;;;5075295;28;20489;-80
2023/02/26 05:46:32;;;;;;;13.70;7.00;;;-1.30;99.90;;;;;;5075064;28;20444;-80
2023/02/26 05:48:58;;;;;;;10.10;6.15;;;-1.40;99.90;;;;;;5071085;28;20119;-80
2023/02/26 05:51:24;;;;;;;207.05;69.35;;;-1.40;99.90;;;;;;5067482;28;20033;-79
2023/02/26 05:53:49;;;;;;;109.70;41.55;;;-1.30;99.90;;;;;;5073453;28;20078;-80
2023/02/26 05:56:15;;;;;;;142.40;53.38;;;-1.40;99.90;;;;;;5074838;28;20478;-80
2023/02/26 05:58:41;;;;;;;50.95;17.73;;;-1.40;99.90;;;;;;5073736;28;20101;-80
2023/02/26 06:01:06;;;;;;;93.85;32.15;;;-1.40;99.90;;;;;;5073905;28;20020;-80
2023/02/26 06:03:32;;;;;;;358.15;131.20;;;-1.40;99.90;;;;;;5075179;28;20484;-80
2023/02/26 06:05:57;;;;;;;483.60;191.60;;;-1.30;99.90;;;;;;5055961;28;20390;-80
2023/02/26 06:08:23;;;;;;;320.27;117.45;;;-1.30;99.90;;;;;;5060223;28;20021;-80
2023/02/26 06:10:50;;;;;;;15.48;9.13;;;-1.30;99.90;;;;;;5062739;28;20024;-80
2023/02/26 06:13:16;;;;;;;376.98;145.85;;;-1.30;99.90;;;;;;5054796;28;20557;-80
2023/02/26 06:15:42;;;;;;;511.35;216.38;;;-1.30;99.90;;;;;;5053319;28;20032;-80
2023/02/26 06:18:08;;;;;;;460.45;184.00;;;-1.30;99.90;;;;;;5056667;28;20056;-80
2023/02/26 06:20:34;;;;;;;443.65;177.00;;;-1.30;99.90;;;;;;5068521;28;20016;-80
2023/02/26 06:22:59;;;;;;;56.30;25.02;;;-1.20;99.90;;;;;;5068250;28;20025;-80
2023/02/26 06:25:25;;;;;;;166.68;67.35;;;-1.30;99.90;;;;;;5065736;28;20028;-80
2023/02/26 06:27:51;;;;;;;18.75;9.38;;;-1.30;99.90;;;;;;5074470;28;20024;-80
2023/02/26 06:30:17;;;;;;;16.65;8.25;;;-1.40;99.90;;;;;;5058962;28;20028;-80
2023/02/26 06:32:43;;;;;;;13.50;8.38;;;-1.40;99.90;;;;;;5061175;28;20051;-80
2023/02/26 06:35:09;;;;;;;134.68;49.22;;;-1.40;99.90;;;;;;5063841;28;20541;-79
2023/02/26 06:37:35;;;;;;;23.17;11.80;;;-1.30;99.90;;;;;;5073035;28;20115;-80
2023/02/26 06:40:01;;;;;;;84.60;25.88;;;-1.30;99.90;;;;;;5054371;28;20025;-80
2023/02/26 06:42:26;;;;;;;172.20;44.78;;;-1.30;99.90;;;;;;5052824;28;20025;-79
2023/02/26 06:44:52;;;;;;;101.60;39.47;;;-1.30;99.90;;;;;;5054008;28;20061;-80
2023/02/26 06:47:17;;;;;;;40.28;16.55;;;-1.30;99.90;;;;;;5054210;28;20099;-79
2023/02/26 06:49:43;;;;;;;52.55;18.80;;;-1.30;99.90;;;;;;5054212;28;20021;-79
2023/02/26 06:52:08;;;;;;;21.85;11.30;;;-1.30;99.90;;;;;;5069701;28;20036;-80
2023/02/26 06:54:34;;;;;;;12.30;7.55;;;-1.30;99.90;;;;;;5073086;28;20027;-80
2023/02/26 06:57:02;;;;;;;313.30;97.57;;;-1.30;99.90;;;;;;5072513;28;20044;-80
2023/02/26 06:59:29;;;;;;;88.80;32.67;;;-1.30;99.90;;;;;;5074316;28;20389;-80
2023/02/26 07:01:56;;;;;;;13.73;7.28;;;-1.20;99.90;;;;;;5072404;28;20024;-80
2023/02/26 07:04:21;;;;;;;146.07;49.67;;;-1.20;99.90;;;;;;5074310;28;20133;-80
2023/02/26 07:06:47;;;;;;;12.90;7.10;;;-1.20;99.90;;;;;;5072649;28;20104;-79
2023/02/26 07:09:12;;;;;;;12.02;6.38;;;-1.30;99.90;;;;;;5073327;28;20531;-79
2023/02/26 07:11:38;;;;;;;10.95;7.57;;;-1.20;99.90;;;;;;5055806;28;20025;-80
2023/02/26 07:14:04;;;;;;;9.75;8.40;;;-1.10;99.90;;;;;;5052596;28;20067;-80
2023/02/26 07:16:29;;;;;;;8.80;6.82;;;-1.10;99.90;;;;;;5052385;28;20436;-80
2023/02/26 07:18:55;;;;;;;10.18;6.03;;;-1.10;99.90;;;;;;5053478;28;20017;-80
2023/02/26 07:21:20;;;;;;;9.35;4.95;;;-1.00;99.90;;;;;;5061864;28;20442;-80
2023/02/26 07:23:46;;;;;;;24.90;10.65;;;-1.00;99.90;;;;;;5057244;28;20021;-80
2023/02/26 07:26:12;;;;;;;30.85;12.25;;;-0.90;99.90;;;;;;5059611;28;20025;-80
2023/02/26 07:28:37;;;;;;;11.18;5.88;;;-0.90;99.90;;;;;;5071735;28;20551;-80
2023/02/26 07:31:03;;;;;;;7.68;5.65;;;-0.90;99.90;;;;;;5072391;28;20025;-80
2023/02/26 07:33:30;;;;;;;23.60;11.57;;;-0.90;99.90;;;;;;5073614;28;20108;-80
2023/02/26 07:35:56;;;;;;;78.90;27.98;;;-0.80;99.90;;;;;;5065752;28;20097;-80
2023/02/26 07:38:22;;;;;;;17.98;8.13;;;-0.70;99.90;;;;;;5053237;28;20100;-80
2023/02/26 07:40:48;;;;;;;591.85;209.82;;;-0.70;99.90;;;;;;5053127;28;20017;-80
2023/02/26 07:43:13;;;;;;;456.75;146.60;;;-0.50;99.90;;;;;;5053228;28;20017;-80
2023/02/26 07:45:39;;;;;;;33.17;16.35;;;-0.60;99.90;;;;;;5052880;28;20503;-80
2023/02/26 07:48:04;;;;;;;462.10;157.50;;;-0.60;99.90;;;;;;5053278;28;20021;-80
2023/02/26 07:50:30;;;;;;;7.53;5.30;;;-0.50;99.90;;;;;;5053496;28;20482;-80
2023/02/26 07:52:56;;;;;;;206.90;65.85;;;-0.70;89.90;;;;;;5052125;28;20021;-80
2023/02/26 07:55:21;;;;;;;24.33;8.75;;;-0.70;83.80;;;;;;5051997;28;20104;-79
2023/02/26 07:57:47;;;;;;;6.47;3.10;;;-0.70;81.60;;;;;;5051807;28;20024;-79
2023/02/26 08:00:14;;;;;;;4.25;3.10;;;-0.80;80.60;;;;;;5052922;28;20534;-80
2023/02/26 08:02:40;;;;;;;169.02;53.92;;;-0.80;80.70;;;;;;5051728;28;20276;-80
2023/02/26 08:05:06;;;;;;;17.58;8.05;;;-0.80;81.30;;;;;;5051977;28;20066;-80
2023/02/26 08:07:31;;;;;;;97.90;29.02;;;-0.70;82.70;;;;;;5052826;28;20060;-80
2023/02/26 08:09:57;;;;;;;31.42;12.25;;;-0.70;83.50;;;;;;5052874;28;20049;-80
2023/02/26 08:12:23;;;;;;;11.35;5.60;;;-0.70;86.00;;;;;;5051700;28;20439;-80
2023/02/26 08:14:49;;;;;;;11.68;7.28;;;-0.70;88.60;;;;;;5052800;28;20104;-80
2023/02/26 08:17:15;;;;;;;72.20;25.92;;;-0.60;90.70;;;;;;5051583;28;20040;-81
2023/02/26 08:19:40;;;;;;;94.97;31.20;;;-0.60;88.00;;;;;;5055272;28;20037;-80
2023/02/26 08:22:06;;;;;;;80.75;23.60;;;-0.60;87.50;;;;;;5035805;28;20561;-80
2023/02/26 08:24:32;;;;;;;11.15;5.80;;;-0.60;88.70;;;;;;5033649;28;20037;-79
2023/02/26 08:26:57;;;;;;;32.95;10.02;;;-0.70;86.90;;;;;;5036247;28;20022;-80
2023/02/26 08:29:24;;;;;;;36.33;12.07;;;-0.70;87.30;;;;;;5035685;28;20536;-80
2023/02/26 08:31:49;;;;;;;14.68;7.20;;;-0.70;88.10;;;;;;5035939;28;20047;-80
2023/02/26 08:34:15;;;;;;;5.20;4.40;;;-0.70;89.40;;;;;;5034298;28;20060;-80
2023/02/26 08:36:40;;;;;;;20.65;9.13;;;-0.80;89.70;;;;;;5035799;28;20042;-79
2023/02/26 08:39:07;;;;;;;27.75;14.30;;;-0.80;89.70;;;;;;5034187;28;20395;-80
2023/02/26 08:41:35;;;;;;;4.78;3.38;;;-0.70;91.90;;;;;;5034541;28;20017;-80
2023/02/26 08:44:01;;;;;;;80.07;29.38;;;-0.80;91.80;;;;;;5035701;28;20037;-80
2023/02/26 08:46:27;;;;;;;7.40;5.30;;;-0.70;94.30;;;;;;5035315;28;20146;-80
2023/02/26 08:48:52;;;;;;;5.60;4.38;;;-0.60;94.50;;;;;;5033908;28;20100;-80
2023/02/26 08:51:21;;;;;;;8.35;4.45;;;-0.80;93.80;;;;;;5044406;28;20052;-80
2023/02/26 08:53:49;;;;;;;6.43;5.70;;;-0.70;90.40;;;;;;5035338;28;20118;-80
2023/02/26 08:56:15;;;;;;;12.23;7.10;;;-0.60;91.10;;;;;;5034503;28;20032;-80
2023/02/26 08:58:40;;;;;;;5.20;4.00;;;-0.50;91.00;;;;;;5034914;28;20046;-80
2023/02/26 09:01:06;;;;;;;5.90;3.80;;;-0.40;88.60;;;;;;5056327;28;20450;-80
2023/02/26 09:03:31;;;;;;;9.05;5.25;;;-0.30;87.70;;;;;;5072637;28;20378;-80
2023/02/26 09:05:57;;;;;;;7.35;4.18;;;-0.20;87.80;;;;;;5074907;28;20028;-80
2023/02/26 09:08:23;;;;;;;8.15;4.55;;;-0.10;86.30;;;;;;5074172;28;20056;-80
2023/02/26 09:10:48;;;;;;;9.73;6.22;;;-0.10;85.20;;;;;;5074555;28;20386;-80
2023/02/26 09:13:14;;;;;;;9.07;4.80;;;-0.20;82.40;;;;;;5074606;28;20025;-79
2023/02/26 09:15:40;;;;;;;8.00;5.05;;;-0.30;82.00;;;;;;5074910;28;20474;-80
2023/02/26 09:18:06;;;;;;;7.65;4.45;;;-0.20;81.60;;;;;;5073933;28;20086;-80
2023/02/26 09:20:31;;;;;;;7.90;5.55;;;-0.20;79.30;;;;;;5069817;28;20045;-79
2023/02/26 09:22:57;;;;;;;10.02;6.78;;;-0.20;79.20;;;;;;5053717;28;20371;-80
2023/02/26 09:25:23;;;;;;;46.78;18.05;;;-0.10;82.50;;;;;;5056725;28;20116;-80
2023/02/26 09:27:49;;;;;;;34.67;12.82;;;0.10;86.30;;;;;;5069457;28;20024;-80
2023/02/26 09:30:15;;;;;;;27.33;12.27;;;0.10;83.50;;;;;;5073583;28;20545;-80
2023/02/26 09:32:40;;;;;;;5.32;4.38;;;0.00;81.90;;;;;;5074675;28;20047;-79
2023/02/26 09:35:07;;;;;;;6.95;3.88;;;0.00;83.60;;;;;;5073038;28;20037;-79
2023/02/26 09:37:32;;;;;;;7.88;4.13;;;-0.30;92.20;;;;;;5074445;28;20036;-79
2023/02/26 09:39:58;;;;;;;22.73;11.23;;;-0.60;99.40;;;;;;5074113;28;20401;-80
2023/02/26 09:42:59;;;;;;;16.67;9.07;;;-0.80;99.90;;;;;;5067955;28;20436;-80
2023/02/26 09:45:35;;;;;;;27.60;12.50;;;-1.00;99.90;;;;;;5032751;28;20566;-79
2023/02/26 09:48:04;;;;;;;4.35;3.72;;;-1.20;99.90;;;;;;5060933;28;20028;-79
2023/02/26 09:50:51;;;;;;;13.25;8.18;;;-1.30;99.90;;;;;;5059184;28;20045;-79
2023/02/26 09:53:20;;;;;;;10.10;7.18;;;-1.30;99.90;;;;;;5032331;28;20030;-80
2023/02/26 09:55:49;;;;;;;7.68;4.63;;;-1.10;99.90;;;;;;5036491;28;20043;-82
2023/02/26 09:58:32;;;;;;;8.05;6.03;;;-1.00;99.90;;;;;;5052842;28;20017;-82
2023/02/26 10:01:01;;;;;;;;;;;-1.00;96.60;;;;;;5053196;28;20039;-81
2023/02/26 10:03:42;;;;;;;7.15;3.97;;;-0.80;93.60;;;;;;5053957;28;19950;-82
2023/02/26 10:06:14;;;;;;;7.20;4.60;;;-0.70;90.60;;;;;;5053749;28;20078;-82
2023/02/26 10:09:15;;;;;;;6.20;3.05;;;-0.60;89.40;;;;;;5053750;28;20025;-80
2023/02/26 10:12:07;;;;;;;28.25;10.30;;;-0.50;89.30;;;;;;5050770;28;20041;-78
2023/02/26 10:14:57;;;;;;;8.60;4.60;;;-0.40;88.50;;;;;;5053806;28;20021;-80
2023/02/26 10:17:39;;;;;;;4.65;3.50;;;-0.30;86.60;;;;;;5054814;28;20116;-80
2023/02/26 10:20:17;;;;;;;4.15;3.22;;;-0.10;86.00;;;;;;5054591;28;20048;-80
2023/02/26 10:23:11;;;;;;;5.53;3.25;;;0.10;84.10;;;;;;5054654;28;20025;-78
2023/02/26 10:25:40;;;;;;;9.45;4.80;;;0.00;81.80;;;;;;5052687;28;20043;-80
2023/02/26 10:28:24;;;;;;;5.53;4.03;;;0.20;83.30;;;;;;5073241;28;20095;-80
2023/02/26 10:31:02;;;;;;;6.63;5.00;;;0.40;83.50;;;;;;5057754;28;20025;-79
2023/02/26 10:33:33;;;;;;;5.28;3.53;;;0.10;82.50;;;;;;5052764;28;20463;-80
2023/02/26 10:36:12;;;;;;;19.80;7.53;;;0.10;83.90;;;;;;5053993;28;20091;-79
2023/02/26 10:38:40;;;;;;;8.02;5.40;;;0.20;85.50;;;;;;5052871;28;20025;-80
2023/02/26 10:41:13;;;;;;;36.17;13.25;;;-0.10;84.00;;;;;;5053342;28;20024;-79
2023/02/26 10:43:41;;;;;;;7.20;4.40;;;0.00;85.10;;;;;;5053601;28;20046;-80
2023/02/26 10:46:31;;;;;;;8.70;4.85;;;-0.10;86.20;;;;;;5053145;28;20052;-80
2023/02/26 10:49:21;;;;;;;14.48;7.55;;;-0.20;89.10;;;;;;5052027;28;20468;-81
2023/02/26 10:51:47;;;;;;;9.13;4.95;;;-0.20;90.50;;;;;;5051751;28;20025;-81
2023/02/26 10:54:19;;;;;;;17.48;6.88;;;-0.10;87.50;;;;;;5053291;28;20040;-81
2023/02/26 10:56:45;;;;;;;7.18;4.75;;;-0.20;85.90;;;;;;5052322;28;20064;-81
2023/02/26 10:59:11;;;;;;;4.20;3.72;;;-0.20;87.10;;;;;;5052376;28;20064;-80
2023/02/26 11:01:37;;;;;;;10.77;4.50;;;-0.10;85.70;;;;;;5052634;28;20056;-79
2023/02/26 11:04:06;;;;;;;10.15;5.57;;;-0.30;85.60;;;;;;5052223;28;20025;-79
2023/02/26 11:06:43;;;;;;;9.02;4.35;;;-0.20;86.80;;;;;;5052428;28;20021;-79
2023/02/26 11:09:23;;;;;;;10.15;5.28;;;-0.10;89.90;;;;;;5051406;28;20021;-79
2023/02/26 11:12:00;;;;;;;5.78;4.45;;;-0.20;89.70;;;;;;5052015;28;20060;-78
2023/02/26 11:14:27;;;;;;;5.05;4.20;;;-0.30;88.90;;;;;;5053337;28;20024;-78
2023/02/26 11:16:56;;;;;;;6.32;4.93;;;-0.20;92.20;;;;;;5051418;28;20044;-78
2023/02/26 11:19:29;;;;;;;8.20;4.13;;;-0.30;93.00;;;;;;5050199;28;20397;-78
2023/02/26 11:21:56;;;;;;;7.25;4.40;;;-0.30;84.70;;;;;;5049801;28;20025;-79
2023/02/26 11:24:30;;;;;;;6.93;4.55;;;-0.30;85.60;;;;;;5048366;28;20025;-78
2023/02/26 11:27:02;;;;;;;8.82;4.97;;;-0.50;87.20;;;;;;5046134;28;20078;-79
2023/02/26 11:29:39;;;;;;;6.63;4.80;;;-0.50;87.50;;;;;;5029597;28;20495;-78
2023/02/26 11:32:05;;;;;;;12.65;6.57;;;-0.50;87.90;;;;;;5049809;28;20299;-81
2023/02/26 11:34:31;;;;;;;14.90;7.97;;;-0.50;87.40;;;;;;5050148;28;20071;-81
2023/02/26 11:37:00;;;;;;;12.25;7.45;;;-0.40;87.50;;;;;;5051261;28;20041;-81
2023/02/26 11:39:33;;;;;;;11.50;6.15;;;-0.40;88.40;;;;;;5050833;28;20026;-78
2023/02/26 11:42:00;;;;;;;10.98;4.47;;;-0.40;87.70;;;;;;5051331;28;20058;-78
2023/02/26 11:44:35;;;;;;;16.35;7.45;;;-0.40;84.20;;;;;;5045563;28;20025;-78
2023/02/26 11:47:10;;;;;;;9.52;5.95;;;-0.30;86.70;;;;;;5030171;28;20045;-79
2023/02/26 11:49:42;;;;;;;7.18;4.75;;;-0.30;85.40;;;;;;5031002;28;20040;-78
2023/02/26 11:52:15;;;;;;;6.80;4.00;;;-0.30;86.70;;;;;;5050291;28;20056;-78
2023/02/26 11:54:45;;;;;;;9.88;7.05;;;-0.20;86.70;;;;;;5050848;28;20481;-78
2023/02/26 11:57:22;;;;;;;9.43;6.35;;;-0.20;87.70;;;;;;5051775;28;20525;-79
2023/02/26 11:59:51;;;;;;;9.95;5.50;;;-0.30;88.90;;;;;;5051749;28;20486;-79
2023/02/26 12:02:22;;;;;;;6.30;4.75;;;-0.30;91.00;;;;;;5049953;28;20017;-79
2023/02/26 12:04:51;;;;;;;10.82;6.22;;;-0.20;91.10;;;;;;5059491;28;20032;-79
2023/02/26 12:07:18;;;;;;;8.10;5.13;;;-0.30;88.20;;;;;;5047762;28;20029;-79
2023/02/26 12:09:46;;;;;;;13.18;7.65;;;-0.50;86.00;;;;;;5050148;28;20029;-79
2023/02/26 12:12:34;;;;;;;8.10;5.90;;;-0.40;86.30;;;;;;5049721;28;20044;-79
2023/02/26 12:15:28;;;;;;;7.53;5.45;;;-0.50;87.60;;;;;;5044872;28;20538;-78
2023/02/26 12:18:16;;;;;;;12.65;5.43;;;-0.60;91.10;;;;;;5048092;28;20049;-78
2023/02/26 12:21:01;;;;;;;13.25;6.55;;;-0.60;91.50;;;;;;5051719;28;20025;-78
2023/02/26 12:23:53;;;;;;;11.32;7.05;;;-0.50;94.30;;;;;;5052605;28;20031;-78
2023/02/26 12:26:27;;;;;;;12.38;7.55;;;-0.60;94.70;;;;;;5052398;28;20096;-78
2023/02/26 12:29:12;;;;;;;11.57;7.00;;;-0.60;96.30;;;;;;5051564;28;20431;-78
2023/02/26 12:31:59;;;;;;;12.05;7.63;;;-0.60;98.80;;;;;;5051361;28;20027;-78
2023/02/26 12:34:44;;;;;;;14.70;9.15;;;-0.60;98.80;;;;;;5051048;28;20470;-78
2023/02/26 12:37:40;;;;;;;12.05;5.82;;;-0.60;99.70;;;;;;5050863;28;20048;-79
2023/02/26 12:40:29;;;;;;;8.45;5.82;;;-0.70;91.60;;;;;;5050177;28;20505;-81
2023/02/26 12:42:58;;;;;;;13.25;6.60;;;-0.70;89.20;;;;;;5051142;28;20029;-81
2023/02/26 12:45:33;;;;;;;7.50;5.22;;;-0.70;86.40;;;;;;5052054;28;20509;-81
2023/02/26 12:48:28;;;;;;;9.63;5.45;;;-0.80;82.80;;;;;;5051507;28;20025;-81
2023/02/26 12:51:10;;;;;;;9.57;5.65;;;-0.80;81.70;;;;;;5049941;28;20036;-81
2023/02/26 12:53:57;;;;;;;8.43;6.57;;;-0.70;82.20;;;;;;5051141;28;20029;-78
2023/02/26 12:57:00;;;;;;;13.80;8.48;;;-0.60;80.80;;;;;;5050799;28;20103;-79
2023/02/26 12:59:26;;;;;;;10.52;5.93;;;-0.60;81.20;;;;;;5051338;28;20029;-79